KCSM/CSM METAR and TAF weather

Enter ICAO airport designator
Station Type Date Time Source
KCSM METAR 2019/04/18 20:53 UTC NOAA

KCSM 182053Z 34017G31KT 10SM BKN090 BKN110 20/02 A2992 RMK AO2 PK WND 33031/2047 SLP120 T02000022 56029


Station Type Date Time Source
KCSM Decoded METAR 2019/04/18 20:53 UTC NOAA

CLINTON-SHERMAN AIRPORT, OK, United States (KCSM) 35-21E 99-12W 588M
Apr 18, 2019 - 04:53 PM EDT / 2019.04.18 2053 UTC
Wind: from the NNW (340 degrees) at 20 MPH (17 KT) gusting to 36 MPH (31 KT):0
Visibility: 10 mile(s):0
Sky conditions: mostly cloudy
Temperature: 68.0 F (20.0 C)
Dew Point: 36.0 F (2.2 C)
Relative Humidity: 30%
Pressure (altimeter): 29.92 in. Hg (1013 hPa)
Pressure tendency: 0.09 inches (2.9 hPa) lower than three hours ago
ob: KCSM 182053Z 34017G31KT 10SM BKN090 BKN110 20/02 A2992 RMK AO2 PK WND 33031/2047 SLP120 T02000022 56029
cycle: 21

Station Type Date Time Source
KCSM TAF 2019/04/18 18:22 UTC NOAA

TAF KCSM 181720Z 1818/1918 36020G30KT P6SM BKN100
FM190100 33010KT P6SM SKC
FM191500 34015G22KT P6SM SKC

Example: see airport list